sensor_id;sensor_type;location;lat;lon;timestamp;P1;durP1;ratioP1;P2;durP2;ratioP2
4686;SDS011;2357;47.316;-1.348;2023-08-24T00:00:23;3.20;;;1.80;;
4686;SDS011;2357;47.316;-1.348;2023-08-24T00:02:49;3.00;;;1.70;;
4686;SDS011;2357;47.316;-1.348;2023-08-24T00:05:14;2.00;;;1.90;;
4686;SDS011;2357;47.316;-1.348;2023-08-24T00:07:40;4.10;;;2.20;;
4686;SDS011;2357;47.316;-1.348;2023-08-24T00:10:06;2.60;;;1.60;;
4686;SDS011;2357;47.316;-1.348;2023-08-24T00:12:32;4.30;;;2.07;;
4686;SDS011;2357;47.316;-1.348;2023-08-24T00:14:59;3.03;;;2.17;;
4686;SDS011;2357;47.316;-1.348;2023-08-24T00:17:24;4.23;;;2.03;;
4686;SDS011;2357;47.316;-1.348;2023-08-24T00:19:50;2.60;;;1.80;;
4686;SDS011;2357;47.316;-1.348;2023-08-24T00:22:15;2.60;;;1.57;;
4686;SDS011;2357;47.316;-1.348;2023-08-24T00:24:41;2.93;;;1.80;;
4686;SDS011;2357;47.316;-1.348;2023-08-24T00:27:07;2.13;;;1.63;;
4686;SDS011;2357;47.316;-1.348;2023-08-24T00:29:32;1.60;;;1.50;;
4686;SDS011;2357;47.316;-1.348;2023-08-24T00:31:58;1.90;;;1.77;;
4686;SDS011;2357;47.316;-1.348;2023-08-24T00:34:23;2.27;;;2.03;;
4686;SDS011;2357;47.316;-1.348;2023-08-24T00:36:49;3.50;;;1.63;;
4686;SDS011;2357;47.316;-1.348;2023-08-24T00:39:14;4.43;;;1.60;;
4686;SDS011;2357;47.316;-1.348;2023-08-24T00:41:41;3.17;;;1.83;;
4686;SDS011;2357;47.316;-1.348;2023-08-24T00:44:07;4.20;;;1.73;;
4686;SDS011;2357;47.316;-1.348;2023-08-24T00:46:32;2.00;;;1.70;;
4686;SDS011;2357;47.316;-1.348;2023-08-24T00:48:59;5.50;;;2.20;;
4686;SDS011;2357;47.316;-1.348;2023-08-24T00:51:25;2.40;;;1.63;;
4686;SDS011;2357;47.316;-1.348;2023-08-24T00:53:51;4.27;;;1.87;;
4686;SDS011;2357;47.316;-1.348;2023-08-24T00:56:17;6.13;;;1.90;;
4686;SDS011;2357;47.316;-1.348;2023-08-24T00:58:49;1.70;;;1.60;;
4686;SDS011;2357;47.316;-1.348;2023-08-24T01:01:16;1.73;;;1.60;;
4686;SDS011;2357;47.316;-1.348;2023-08-24T01:03:43;7.50;;;2.00;;
4686;SDS011;2357;47.316;-1.348;2023-08-24T01:06:08;5.90;;;1.70;;
4686;SDS011;2357;47.316;-1.348;2023-08-24T01:08:34;6.93;;;1.40;;
4686;SDS011;2357;47.316;-1.348;2023-08-24T01:11:09;7.57;;;2.10;;
4686;SDS011;2357;47.316;-1.348;2023-08-24T01:13:50;4.40;;;1.53;;
4686;SDS011;2357;47.316;-1.348;2023-08-24T01:16:27;1.40;;;1.30;;
4686;SDS011;2357;47.316;-1.348;2023-08-24T01:18:58;8.27;;;2.00;;
4686;SDS011;2357;47.316;-1.348;2023-08-24T01:21:26;4.30;;;2.10;;
4686;SDS011;2357;47.316;-1.348;2023-08-24T01:24:12;5.27;;;1.80;;
4686;SDS011;2357;47.316;-1.348;2023-08-24T01:26:42;5.00;;;1.77;;
4686;SDS011;2357;47.316;-1.348;2023-08-24T01:29:11;6.43;;;2.20;;
4686;SDS011;2357;47.316;-1.348;2023-08-24T01:31:37;5.20;;;1.70;;
4686;SDS011;2357;47.316;-1.348;2023-08-24T01:34:03;3.47;;;1.53;;
4686;SDS011;2357;47.316;-1.348;2023-08-24T01:36:28;2.33;;;2.13;;
4686;SDS011;2357;47.316;-1.348;2023-08-24T01:42:20;3.87;;;2.23;;
4686;SDS011;2357;47.316;-1.348;2023-08-24T01:44:50;2.47;;;1.50;;
4686;SDS011;2357;47.316;-1.348;2023-08-24T01:47:19;2.80;;;2.03;;
4686;SDS011;2357;47.316;-1.348;2023-08-24T01:49:46;4.27;;;2.10;;
4686;SDS011;2357;47.316;-1.348;2023-08-24T01:52:12;2.20;;;1.87;;
4686;SDS011;2357;47.316;-1.348;2023-08-24T01:54:38;1.77;;;1.63;;
4686;SDS011;2357;47.316;-1.348;2023-08-24T01:57:05;2.20;;;2.10;;
4686;SDS011;2357;47.316;-1.348;2023-08-24T01:59:31;2.60;;;2.10;;
4686;SDS011;2357;47.316;-1.348;2023-08-24T02:01:57;2.97;;;2.00;;
4686;SDS011;2357;47.316;-1.348;2023-08-24T02:04:22;2.10;;;1.97;;
4686;SDS011;2357;47.316;-1.348;2023-08-24T02:06:48;9.40;;;1.70;;
4686;SDS011;2357;47.316;-1.348;2023-08-24T02:09:14;2.90;;;2.40;;
4686;SDS011;2357;47.316;-1.348;2023-08-24T02:11:39;8.03;;;3.47;;
4686;SDS011;2357;47.316;-1.348;2023-08-24T02:14:05;4.30;;;1.90;;
4686;SDS011;2357;47.316;-1.348;2023-08-24T02:16:30;1.90;;;1.80;;
4686;SDS011;2357;47.316;-1.348;2023-08-24T02:18:56;3.33;;;2.23;;
4686;SDS011;2357;47.316;-1.348;2023-08-24T02:21:21;3.93;;;2.00;;
4686;SDS011;2357;47.316;-1.348;2023-08-24T02:23:47;2.70;;;1.97;;
4686;SDS011;2357;47.316;-1.348;2023-08-24T02:26:13;2.00;;;1.90;;
4686;SDS011;2357;47.316;-1.348;2023-08-24T02:28:38;1.73;;;1.60;;
4686;SDS011;2357;47.316;-1.348;2023-08-24T02:31:04;2.43;;;2.23;;
4686;SDS011;2357;47.316;-1.348;2023-08-24T02:33:30;8.70;;;3.00;;
4686;SDS011;2357;47.316;-1.348;2023-08-24T02:35:56;2.30;;;2.00;;
4686;SDS011;2357;47.316;-1.348;2023-08-24T02:38:25;2.10;;;1.50;;
4686;SDS011;2357;47.316;-1.348;2023-08-24T02:41:00;3.53;;;1.77;;
4686;SDS011;2357;47.316;-1.348;2023-08-24T02:43:29;5.57;;;2.27;;
4686;SDS011;2357;47.316;-1.348;2023-08-24T02:45:59;1.80;;;1.70;;
4686;SDS011;2357;47.316;-1.348;2023-08-24T02:48:29;5.60;;;2.53;;
4686;SDS011;2357;47.316;-1.348;2023-08-24T02:50:56;2.70;;;1.90;;
4686;SDS011;2357;47.316;-1.348;2023-08-24T02:53:26;2.27;;;1.93;;
4686;SDS011;2357;47.316;-1.348;2023-08-24T02:55:52;1.83;;;1.73;;
4686;SDS011;2357;47.316;-1.348;2023-08-24T02:58:20;9.60;;;3.33;;
4686;SDS011;2357;47.316;-1.348;2023-08-24T03:00:46;4.67;;;2.10;;
4686;SDS011;2357;47.316;-1.348;2023-08-24T03:03:13;6.50;;;1.70;;
4686;SDS011;2357;47.316;-1.348;2023-08-24T03:05:39;5.40;;;2.23;;
4686;SDS011;2357;47.316;-1.348;2023-08-24T03:08:05;3.70;;;1.90;;
4686;SDS011;2357;47.316;-1.348;2023-08-24T03:10:34;2.53;;;2.33;;
4686;SDS011;2357;47.316;-1.348;2023-08-24T03:13:00;2.27;;;1.87;;
4686;SDS011;2357;47.316;-1.348;2023-08-24T03:15:26;7.00;;;1.87;;
4686;SDS011;2357;47.316;-1.348;2023-08-24T03:17:51;2.27;;;2.07;;
4686;SDS011;2357;47.316;-1.348;2023-08-24T03:20:17;1.60;;;1.50;;
4686;SDS011;2357;47.316;-1.348;2023-08-24T03:22:44;6.77;;;2.20;;
4686;SDS011;2357;47.316;-1.348;2023-08-24T03:25:10;2.63;;;1.80;;
4686;SDS011;2357;47.316;-1.348;2023-08-24T03:27:35;6.17;;;1.93;;
4686;SDS011;2357;47.316;-1.348;2023-08-24T03:30:03;4.23;;;2.47;;
4686;SDS011;2357;47.316;-1.348;2023-08-24T03:32:29;2.30;;;1.83;;
4686;SDS011;2357;47.316;-1.348;2023-08-24T03:34:58;2.37;;;2.17;;
4686;SDS011;2357;47.316;-1.348;2023-08-24T03:37:25;5.10;;;2.00;;
4686;SDS011;2357;47.316;-1.348;2023-08-24T03:39:50;2.00;;;1.80;;
4686;SDS011;2357;47.316;-1.348;2023-08-24T03:42:16;3.40;;;2.13;;
4686;SDS011;2357;47.316;-1.348;2023-08-24T03:44:41;5.27;;;1.80;;
4686;SDS011;2357;47.316;-1.348;2023-08-24T03:47:07;1.57;;;1.47;;
4686;SDS011;2357;47.316;-1.348;2023-08-24T03:49:33;4.33;;;2.13;;
4686;SDS011;2357;47.316;-1.348;2023-08-24T03:51:59;18.27;;;3.47;;
4686;SDS011;2357;47.316;-1.348;2023-08-24T03:54:25;2.00;;;1.83;;
4686;SDS011;2357;47.316;-1.348;2023-08-24T03:56:50;5.40;;;2.27;;
4686;SDS011;2357;47.316;-1.348;2023-08-24T03:59:16;1.77;;;1.67;;
4686;SDS011;2357;47.316;-1.348;2023-08-24T04:01:42;2.03;;;1.93;;
4686;SDS011;2357;47.316;-1.348;2023-08-24T04:04:07;2.30;;;2.03;;
4686;SDS011;2357;47.316;-1.348;2023-08-24T04:06:33;7.70;;;2.50;;
4686;SDS011;2357;47.316;-1.348;2023-08-24T04:08:59;2.47;;;2.37;;
4686;SDS011;2357;47.316;-1.348;2023-08-24T04:11:24;5.97;;;2.53;;
4686;SDS011;2357;47.316;-1.348;2023-08-24T04:13:50;3.93;;;2.20;;
4686;SDS011;2357;47.316;-1.348;2023-08-24T04:16:15;3.27;;;1.90;;
4686;SDS011;2357;47.316;-1.348;2023-08-24T04:18:41;2.17;;;1.97;;
4686;SDS011;2357;47.316;-1.348;2023-08-24T04:21:07;2.10;;;2.00;;
4686;SDS011;2357;47.316;-1.348;2023-08-24T04:23:32;7.80;;;3.30;;
4686;SDS011;2357;47.316;-1.348;2023-08-24T04:25:58;6.27;;;2.07;;
4686;SDS011;2357;47.316;-1.348;2023-08-24T04:28:24;3.97;;;2.30;;
4686;SDS011;2357;47.316;-1.348;2023-08-24T04:30:50;2.57;;;1.97;;
4686;SDS011;2357;47.316;-1.348;2023-08-24T04:33:16;6.40;;;2.60;;
4686;SDS011;2357;47.316;-1.348;2023-08-24T04:35:42;3.93;;;2.50;;
4686;SDS011;2357;47.316;-1.348;2023-08-24T04:38:07;4.30;;;2.80;;
4686;SDS011;2357;47.316;-1.348;2023-08-24T04:40:49;2.20;;;1.83;;
4686;SDS011;2357;47.316;-1.348;2023-08-24T04:43:17;3.20;;;2.20;;
4686;SDS011;2357;47.316;-1.348;2023-08-24T04:45:47;12.03;;;2.43;;
4686;SDS011;2357;47.316;-1.348;2023-08-24T04:48:20;4.13;;;2.50;;
4686;SDS011;2357;47.316;-1.348;2023-08-24T04:50:46;3.47;;;2.13;;
4686;SDS011;2357;47.316;-1.348;2023-08-24T04:53:16;2.30;;;2.17;;
4686;SDS011;2357;47.316;-1.348;2023-08-24T04:55:42;3.67;;;2.70;;
4686;SDS011;2357;47.316;-1.348;2023-08-24T04:58:09;4.50;;;2.37;;
4686;SDS011;2357;47.316;-1.348;2023-08-24T05:00:35;2.80;;;1.63;;
4686;SDS011;2357;47.316;-1.348;2023-08-24T05:03:02;2.00;;;1.87;;
4686;SDS011;2357;47.316;-1.348;2023-08-24T05:05:29;2.70;;;2.07;;
4686;SDS011;2357;47.316;-1.348;2023-08-24T05:07:56;2.00;;;1.90;;
4686;SDS011;2357;47.316;-1.348;2023-08-24T05:10:22;3.77;;;2.77;;
4686;SDS011;2357;47.316;-1.348;2023-08-24T05:12:48;2.53;;;2.33;;
4686;SDS011;2357;47.316;-1.348;2023-08-24T05:15:14;3.73;;;3.03;;
4686;SDS011;2357;47.316;-1.348;2023-08-24T05:17:40;7.20;;;3.17;;
4686;SDS011;2357;47.316;-1.348;2023-08-24T05:20:06;4.03;;;2.20;;
4686;SDS011;2357;47.316;-1.348;2023-08-24T05:22:41;7.90;;;2.50;;
4686;SDS011;2357;47.316;-1.348;2023-08-24T05:25:07;3.60;;;3.07;;
4686;SDS011;2357;47.316;-1.348;2023-08-24T05:27:32;3.13;;;2.43;;
4686;SDS011;2357;47.316;-1.348;2023-08-24T05:29:58;2.00;;;1.90;;
4686;SDS011;2357;47.316;-1.348;2023-08-24T05:32:24;10.20;;;2.57;;
4686;SDS011;2357;47.316;-1.348;2023-08-24T05:34:49;3.30;;;2.13;;
4686;SDS011;2357;47.316;-1.348;2023-08-24T05:37:15;8.47;;;2.63;;
4686;SDS011;2357;47.316;-1.348;2023-08-24T05:39:41;8.07;;;2.30;;
4686;SDS011;2357;47.316;-1.348;2023-08-24T05:42:07;4.03;;;2.30;;
4686;SDS011;2357;47.316;-1.348;2023-08-24T05:44:34;2.70;;;2.50;;
4686;SDS011;2357;47.316;-1.348;2023-08-24T05:46:59;2.40;;;1.97;;
4686;SDS011;2357;47.316;-1.348;2023-08-24T05:49:25;12.60;;;2.70;;
4686;SDS011;2357;47.316;-1.348;2023-08-24T05:51:51;5.90;;;2.60;;
4686;SDS011;2357;47.316;-1.348;2023-08-24T05:54:17;3.20;;;2.90;;
4686;SDS011;2357;47.316;-1.348;2023-08-24T05:56:43;2.17;;;2.07;;
4686;SDS011;2357;47.316;-1.348;2023-08-24T05:59:10;5.07;;;2.83;;
4686;SDS011;2357;47.316;-1.348;2023-08-24T06:01:35;5.67;;;2.10;;
4686;SDS011;2357;47.316;-1.348;2023-08-24T06:04:04;4.10;;;2.67;;
4686;SDS011;2357;47.316;-1.348;2023-08-24T06:06:33;6.77;;;2.57;;
4686;SDS011;2357;47.316;-1.348;2023-08-24T06:08:59;3.83;;;2.70;;
4686;SDS011;2357;47.316;-1.348;2023-08-24T06:11:24;2.20;;;2.00;;
4686;SDS011;2357;47.316;-1.348;2023-08-24T06:13:50;2.53;;;2.30;;
4686;SDS011;2357;47.316;-1.348;2023-08-24T06:16:18;2.83;;;2.50;;
4686;SDS011;2357;47.316;-1.348;2023-08-24T06:18:44;4.07;;;2.20;;
4686;SDS011;2357;47.316;-1.348;2023-08-24T06:21:10;13.00;;;3.27;;
4686;SDS011;2357;47.316;-1.348;2023-08-24T06:23:35;2.80;;;2.60;;
4686;SDS011;2357;47.316;-1.348;2023-08-24T06:26:01;6.20;;;3.40;;
4686;SDS011;2357;47.316;-1.348;2023-08-24T06:28:27;4.20;;;2.40;;
4686;SDS011;2357;47.316;-1.348;2023-08-24T06:30:54;3.03;;;2.50;;
4686;SDS011;2357;47.316;-1.348;2023-08-24T06:33:20;2.53;;;2.33;;
4686;SDS011;2357;47.316;-1.348;2023-08-24T06:35:45;8.13;;;2.63;;
4686;SDS011;2357;47.316;-1.348;2023-08-24T06:38:11;2.80;;;2.60;;
4686;SDS011;2357;47.316;-1.348;2023-08-24T06:40:38;10.00;;;2.73;;
4686;SDS011;2357;47.316;-1.348;2023-08-24T06:43:04;4.73;;;3.10;;
4686;SDS011;2357;47.316;-1.348;2023-08-24T06:45:30;3.90;;;2.83;;
4686;SDS011;2357;47.316;-1.348;2023-08-24T06:47:56;2.37;;;2.17;;
4686;SDS011;2357;47.316;-1.348;2023-08-24T06:50:22;16.37;;;3.27;;
4686;SDS011;2357;47.316;-1.348;2023-08-24T06:52:47;8.13;;;2.43;;
4686;SDS011;2357;47.316;-1.348;2023-08-24T06:55:13;5.67;;;3.10;;
4686;SDS011;2357;47.316;-1.348;2023-08-24T06:57:39;4.90;;;2.67;;
4686;SDS011;2357;47.316;-1.348;2023-08-24T07:00:06;3.10;;;2.73;;
4686;SDS011;2357;47.316;-1.348;2023-08-24T07:02:34;3.60;;;3.07;;
4686;SDS011;2357;47.316;-1.348;2023-08-24T07:05:03;4.30;;;3.23;;
4686;SDS011;2357;47.316;-1.348;2023-08-24T07:07:33;10.87;;;4.00;;
4686;SDS011;2357;47.316;-1.348;2023-08-24T07:09:59;2.90;;;2.70;;
4686;SDS011;2357;47.316;-1.348;2023-08-24T07:12:25;3.87;;;2.87;;
4686;SDS011;2357;47.316;-1.348;2023-08-24T07:14:51;3.00;;;2.73;;
4686;SDS011;2357;47.316;-1.348;2023-08-24T07:17:16;4.50;;;3.07;;
4686;SDS011;2357;47.316;-1.348;2023-08-24T07:19:43;10.43;;;3.90;;
4686;SDS011;2357;47.316;-1.348;2023-08-24T07:22:08;3.70;;;2.83;;
4686;SDS011;2357;47.316;-1.348;2023-08-24T07:24:34;4.20;;;3.27;;
4686;SDS011;2357;47.316;-1.348;2023-08-24T07:27:01;5.80;;;3.33;;
4686;SDS011;2357;47.316;-1.348;2023-08-24T07:29:28;3.73;;;3.20;;
4686;SDS011;2357;47.316;-1.348;2023-08-24T07:31:54;7.67;;;3.90;;
4686;SDS011;2357;47.316;-1.348;2023-08-24T07:34:19;4.23;;;3.83;;
4686;SDS011;2357;47.316;-1.348;2023-08-24T07:36:47;7.63;;;4.40;;
4686;SDS011;2357;47.316;-1.348;2023-08-24T07:39:13;4.80;;;3.37;;
4686;SDS011;2357;47.316;-1.348;2023-08-24T07:41:40;7.53;;;3.03;;
4686;SDS011;2357;47.316;-1.348;2023-08-24T07:44:06;5.70;;;3.40;;
4686;SDS011;2357;47.316;-1.348;2023-08-24T07:46:32;4.30;;;2.87;;
4686;SDS011;2357;47.316;-1.348;2023-08-24T07:48:58;8.07;;;4.30;;
4686;SDS011;2357;47.316;-1.348;2023-08-24T07:51:24;8.07;;;4.10;;
4686;SDS011;2357;47.316;-1.348;2023-08-24T07:53:49;7.43;;;3.30;;
4686;SDS011;2357;47.316;-1.348;2023-08-24T07:56:17;7.27;;;3.90;;
4686;SDS011;2357;47.316;-1.348;2023-08-24T07:58:43;7.07;;;3.00;;
4686;SDS011;2357;47.316;-1.348;2023-08-24T08:01:09;14.00;;;3.57;;
4686;SDS011;2357;47.316;-1.348;2023-08-24T08:03:36;4.03;;;3.07;;
4686;SDS011;2357;47.316;-1.348;2023-08-24T08:06:02;13.23;;;4.03;;
4686;SDS011;2357;47.316;-1.348;2023-08-24T08:08:28;2.90;;;2.60;;
4686;SDS011;2357;47.316;-1.348;2023-08-24T08:10:57;5.37;;;3.93;;
4686;SDS011;2357;47.316;-1.348;2023-08-24T08:13:24;4.27;;;3.07;;
4686;SDS011;2357;47.316;-1.348;2023-08-24T08:15:50;4.33;;;3.03;;
4686;SDS011;2357;47.316;-1.348;2023-08-24T08:18:16;4.50;;;3.97;;
4686;SDS011;2357;47.316;-1.348;2023-08-24T08:20:42;6.53;;;3.00;;
4686;SDS011;2357;47.316;-1.348;2023-08-24T08:23:07;3.57;;;3.00;;
4686;SDS011;2357;47.316;-1.348;2023-08-24T08:25:33;4.60;;;3.60;;
4686;SDS011;2357;47.316;-1.348;2023-08-24T08:27:58;4.47;;;3.77;;
4686;SDS011;2357;47.316;-1.348;2023-08-24T08:30:24;5.90;;;3.00;;
4686;SDS011;2357;47.316;-1.348;2023-08-24T08:32:50;4.40;;;3.60;;
4686;SDS011;2357;47.316;-1.348;2023-08-24T08:35:17;6.77;;;3.73;;
4686;SDS011;2357;47.316;-1.348;2023-08-24T08:37:43;5.47;;;3.67;;
4686;SDS011;2357;47.316;-1.348;2023-08-24T08:40:10;4.10;;;3.30;;
4686;SDS011;2357;47.316;-1.348;2023-08-24T08:42:36;5.30;;;3.43;;
4686;SDS011;2357;47.316;-1.348;2023-08-24T08:45:03;9.60;;;3.93;;
4686;SDS011;2357;47.316;-1.348;2023-08-24T08:47:33;5.60;;;3.33;;
4686;SDS011;2357;47.316;-1.348;2023-08-24T08:49:59;16.23;;;5.23;;
4686;SDS011;2357;47.316;-1.348;2023-08-24T08:52:33;11.33;;;6.40;;
4686;SDS011;2357;47.316;-1.348;2023-08-24T08:54:59;13.30;;;6.23;;
4686;SDS011;2357;47.316;-1.348;2023-08-24T08:57:25;18.40;;;7.27;;
4686;SDS011;2357;47.316;-1.348;2023-08-24T08:59:54;15.63;;;7.83;;
4686;SDS011;2357;47.316;-1.348;2023-08-24T09:02:20;20.23;;;7.00;;
4686;SDS011;2357;47.316;-1.348;2023-08-24T09:04:47;6.03;;;4.07;;
4686;SDS011;2357;47.316;-1.348;2023-08-24T09:07:15;8.57;;;4.20;;
4686;SDS011;2357;47.316;-1.348;2023-08-24T09:09:41;7.90;;;4.80;;
4686;SDS011;2357;47.316;-1.348;2023-08-24T09:12:08;11.43;;;5.83;;
4686;SDS011;2357;47.316;-1.348;2023-08-24T09:14:33;7.83;;;4.70;;
4686;SDS011;2357;47.316;-1.348;2023-08-24T09:17:00;8.03;;;5.23;;
4686;SDS011;2357;47.316;-1.348;2023-08-24T09:19:32;14.30;;;5.30;;
4686;SDS011;2357;47.316;-1.348;2023-08-24T09:22:03;8.80;;;4.80;;
4686;SDS011;2357;47.316;-1.348;2023-08-24T09:24:29;5.70;;;4.80;;
4686;SDS011;2357;47.316;-1.348;2023-08-24T09:26:57;12.87;;;5.53;;
4686;SDS011;2357;47.316;-1.348;2023-08-24T09:29:22;8.50;;;4.63;;
4686;SDS011;2357;47.316;-1.348;2023-08-24T09:31:49;16.37;;;5.57;;
4686;SDS011;2357;47.316;-1.348;2023-08-24T09:34:15;29.57;;;10.60;;
4686;SDS011;2357;47.316;-1.348;2023-08-24T09:36:51;31.23;;;10.20;;
4686;SDS011;2357;47.316;-1.348;2023-08-24T09:39:17;20.60;;;8.50;;
4686;SDS011;2357;47.316;-1.348;2023-08-24T09:41:45;13.00;;;6.53;;
4686;SDS011;2357;47.316;-1.348;2023-08-24T09:44:16;8.10;;;4.63;;
4686;SDS011;2357;47.316;-1.348;2023-08-24T09:46:42;10.57;;;5.27;;
4686;SDS011;2357;47.316;-1.348;2023-08-24T09:49:09;8.50;;;4.40;;
4686;SDS011;2357;47.316;-1.348;2023-08-24T09:51:36;14.63;;;4.27;;
4686;SDS011;2357;47.316;-1.348;2023-08-24T09:54:05;5.67;;;3.80;;
4686;SDS011;2357;47.316;-1.348;2023-08-24T09:56:37;6.27;;;4.30;;
4686;SDS011;2357;47.316;-1.348;2023-08-24T10:01:36;14.40;;;4.47;;
4686;SDS011;2357;47.316;-1.348;2023-08-24T10:04:02;7.07;;;4.23;;
4686;SDS011;2357;47.316;-1.348;2023-08-24T10:06:30;7.53;;;5.23;;
4686;SDS011;2357;47.316;-1.348;2023-08-24T10:08:58;5.73;;;4.30;;
4686;SDS011;2357;47.316;-1.348;2023-08-24T10:11:29;15.33;;;5.87;;
4686;SDS011;2357;47.316;-1.348;2023-08-24T10:16:40;5.70;;;5.10;;
4686;SDS011;2357;47.316;-1.348;2023-08-24T10:19:07;5.20;;;3.73;;
4686;SDS011;2357;47.316;-1.348;2023-08-24T10:21:33;4.43;;;4.13;;
4686;SDS011;2357;47.316;-1.348;2023-08-24T10:24:01;7.03;;;4.30;;
4686;SDS011;2357;47.316;-1.348;2023-08-24T10:26:27;10.60;;;4.27;;
4686;SDS011;2357;47.316;-1.348;2023-08-24T10:28:53;4.93;;;3.10;;
4686;SDS011;2357;47.316;-1.348;2023-08-24T10:31:19;4.57;;;4.17;;
4686;SDS011;2357;47.316;-1.348;2023-08-24T10:33:45;5.00;;;3.83;;
4686;SDS011;2357;47.316;-1.348;2023-08-24T10:36:15;4.20;;;3.77;;
4686;SDS011;2357;47.316;-1.348;2023-08-24T10:38:43;7.50;;;3.90;;
4686;SDS011;2357;47.316;-1.348;2023-08-24T10:41:09;7.73;;;3.70;;
4686;SDS011;2357;47.316;-1.348;2023-08-24T10:43:39;9.30;;;5.00;;
4686;SDS011;2357;47.316;-1.348;2023-08-24T10:46:12;7.23;;;4.33;;
4686;SDS011;2357;47.316;-1.348;2023-08-24T10:51:19;19.27;;;8.27;;
4686;SDS011;2357;47.316;-1.348;2023-08-24T10:53:51;30.57;;;14.80;;
4686;SDS011;2357;47.316;-1.348;2023-08-24T10:56:56;7.93;;;3.90;;
4686;SDS011;2357;47.316;-1.348;2023-08-24T10:59:19;5.63;;;4.50;;
4686;SDS011;2357;47.316;-1.348;2023-08-24T11:04:16;10.17;;;5.20;;
4686;SDS011;2357;47.316;-1.348;2023-08-24T11:06:58;10.23;;;3.80;;
4686;SDS011;2357;47.316;-1.348;2023-08-24T11:09:27;5.97;;;3.60;;
4686;SDS011;2357;47.316;-1.348;2023-08-24T11:12:10;11.20;;;3.90;;
4686;SDS011;2357;47.316;-1.348;2023-08-24T11:14:48;4.10;;;3.70;;
4686;SDS011;2357;47.316;-1.348;2023-08-24T11:17:20;10.17;;;3.67;;
4686;SDS011;2357;47.316;-1.348;2023-08-24T11:19:47;3.53;;;2.83;;
4686;SDS011;2357;47.316;-1.348;2023-08-24T11:22:14;13.80;;;2.90;;
4686;SDS011;2357;47.316;-1.348;2023-08-24T11:24:41;5.70;;;2.70;;
4686;SDS011;2357;47.316;-1.348;2023-08-24T11:27:08;3.60;;;2.47;;
4686;SDS011;2357;47.316;-1.348;2023-08-24T11:29:34;3.03;;;2.43;;
4686;SDS011;2357;47.316;-1.348;2023-08-24T11:32:00;2.97;;;2.03;;
4686;SDS011;2357;47.316;-1.348;2023-08-24T11:34:25;1.83;;;1.70;;
4686;SDS011;2357;47.316;-1.348;2023-08-24T11:36:51;4.50;;;2.63;;
4686;SDS011;2357;47.316;-1.348;2023-08-24T11:39:19;2.00;;;1.90;;
4686;SDS011;2357;47.316;-1.348;2023-08-24T11:42:03;3.03;;;2.13;;
4686;SDS011;2357;47.316;-1.348;2023-08-24T11:44:30;2.03;;;1.83;;
4686;SDS011;2357;47.316;-1.348;2023-08-24T11:47:11;2.60;;;2.30;;
4686;SDS011;2357;47.316;-1.348;2023-08-24T11:49:37;10.83;;;3.00;;
4686;SDS011;2357;47.316;-1.348;2023-08-24T11:52:03;3.60;;;2.17;;
4686;SDS011;2357;47.316;-1.348;2023-08-24T11:54:31;2.87;;;2.30;;
4686;SDS011;2357;47.316;-1.348;2023-08-24T11:56:57;3.30;;;2.40;;
4686;SDS011;2357;47.316;-1.348;2023-08-24T11:59:23;3.13;;;2.13;;
4686;SDS011;2357;47.316;-1.348;2023-08-24T12:01:50;6.77;;;2.40;;
4686;SDS011;2357;47.316;-1.348;2023-08-24T12:04:17;3.93;;;2.30;;
4686;SDS011;2357;47.316;-1.348;2023-08-24T12:06:43;6.17;;;2.40;;
4686;SDS011;2357;47.316;-1.348;2023-08-24T12:09:09;3.50;;;2.30;;
4686;SDS011;2357;47.316;-1.348;2023-08-24T12:11:35;2.90;;;2.07;;
4686;SDS011;2357;47.316;-1.348;2023-08-24T12:14:01;2.50;;;1.70;;
4686;SDS011;2357;47.316;-1.348;2023-08-24T12:16:30;2.60;;;1.90;;
4686;SDS011;2357;47.316;-1.348;2023-08-24T12:18:58;2.10;;;1.90;;
4686;SDS011;2357;47.316;-1.348;2023-08-24T12:21:25;1.73;;;1.43;;
4686;SDS011;2357;47.316;-1.348;2023-08-24T12:23:54;4.13;;;1.43;;
4686;SDS011;2357;47.316;-1.348;2023-08-24T12:26:21;1.77;;;1.10;;
4686;SDS011;2357;47.316;-1.348;2023-08-24T12:28:50;1.40;;;1.30;;
4686;SDS011;2357;47.316;-1.348;2023-08-24T12:31:17;2.47;;;1.70;;
4686;SDS011;2357;47.316;-1.348;2023-08-24T12:33:43;1.43;;;1.33;;
4686;SDS011;2357;47.316;-1.348;2023-08-24T12:36:10;2.77;;;1.43;;
4686;SDS011;2357;47.316;-1.348;2023-08-24T12:38:35;1.60;;;1.50;;
4686;SDS011;2357;47.316;-1.348;2023-08-24T12:41:02;4.30;;;1.30;;
4686;SDS011;2357;47.316;-1.348;2023-08-24T12:43:28;2.17;;;1.97;;
4686;SDS011;2357;47.316;-1.348;2023-08-24T12:45:53;1.37;;;1.17;;
4686;SDS011;2357;47.316;-1.348;2023-08-24T12:48:19;3.93;;;1.00;;
4686;SDS011;2357;47.316;-1.348;2023-08-24T12:50:45;1.03;;;1.00;;
4686;SDS011;2357;47.316;-1.348;2023-08-24T12:53:10;1.83;;;1.30;;
4686;SDS011;2357;47.316;-1.348;2023-08-24T12:55:38;1.00;;;1.00;;
4686;SDS011;2357;47.316;-1.348;2023-08-24T12:58:07;1.13;;;0.80;;
4686;SDS011;2357;47.316;-1.348;2023-08-24T13:00:34;1.00;;;1.00;;
4686;SDS011;2357;47.316;-1.348;2023-08-24T13:02:59;1.87;;;1.10;;
4686;SDS011;2357;47.316;-1.348;2023-08-24T13:05:25;3.50;;;1.30;;
4686;SDS011;2357;47.316;-1.348;2023-08-24T13:07:50;0.90;;;0.90;;
4686;SDS011;2357;47.316;-1.348;2023-08-24T13:10:16;4.50;;;1.43;;
4686;SDS011;2357;47.316;-1.348;2023-08-24T13:12:42;2.17;;;0.90;;
4686;SDS011;2357;47.316;-1.348;2023-08-24T13:15:08;1.83;;;0.80;;
4686;SDS011;2357;47.316;-1.348;2023-08-24T13:17:34;3.70;;;0.90;;
4686;SDS011;2357;47.316;-1.348;2023-08-24T13:20:00;1.90;;;0.87;;
4686;SDS011;2357;47.316;-1.348;2023-08-24T13:22:25;2.43;;;1.60;;
4686;SDS011;2357;47.316;-1.348;2023-08-24T13:24:51;3.77;;;1.23;;
4686;SDS011;2357;47.316;-1.348;2023-08-24T13:27:17;1.03;;;1.03;;
4686;SDS011;2357;47.316;-1.348;2023-08-24T13:29:43;1.63;;;1.20;;
4686;SDS011;2357;47.316;-1.348;2023-08-24T13:32:08;2.87;;;1.13;;
4686;SDS011;2357;47.316;-1.348;2023-08-24T13:34:34;1.40;;;1.30;;
4686;SDS011;2357;47.316;-1.348;2023-08-24T13:37:01;3.97;;;0.83;;
4686;SDS011;2357;47.316;-1.348;2023-08-24T13:39:27;3.40;;;1.10;;
4686;SDS011;2357;47.316;-1.348;2023-08-24T13:41:57;3.07;;;1.73;;
4686;SDS011;2357;47.316;-1.348;2023-08-24T13:44:23;3.57;;;1.53;;
4686;SDS011;2357;47.316;-1.348;2023-08-24T13:46:49;1.53;;;0.77;;
4686;SDS011;2357;47.316;-1.348;2023-08-24T13:49:15;3.53;;;1.20;;
4686;SDS011;2357;47.316;-1.348;2023-08-24T13:51:42;7.20;;;1.23;;
4686;SDS011;2357;47.316;-1.348;2023-08-24T13:54:14;1.50;;;1.20;;
4686;SDS011;2357;47.316;-1.348;2023-08-24T13:56:41;1.80;;;1.20;;
4686;SDS011;2357;47.316;-1.348;2023-08-24T13:59:10;2.60;;;1.20;;
4686;SDS011;2357;47.316;-1.348;2023-08-24T14:01:36;1.67;;;1.07;;
4686;SDS011;2357;47.316;-1.348;2023-08-24T14:04:02;0.83;;;0.83;;
4686;SDS011;2357;47.316;-1.348;2023-08-24T14:06:29;1.00;;;1.00;;
4686;SDS011;2357;47.316;-1.348;2023-08-24T14:08:56;0.90;;;0.90;;
4686;SDS011;2357;47.316;-1.348;2023-08-24T14:11:23;1.13;;;1.10;;
4686;SDS011;2357;47.316;-1.348;2023-08-24T14:13:49;2.63;;;1.20;;
4686;SDS011;2357;47.316;-1.348;2023-08-24T14:16:14;3.50;;;1.40;;
4686;SDS011;2357;47.316;-1.348;2023-08-24T14:18:40;3.53;;;1.43;;
4686;SDS011;2357;47.316;-1.348;2023-08-24T14:21:06;1.67;;;1.20;;
4686;SDS011;2357;47.316;-1.348;2023-08-24T14:23:31;1.00;;;1.00;;
4686;SDS011;2357;47.316;-1.348;2023-08-24T14:25:57;1.37;;;1.27;;
4686;SDS011;2357;47.316;-1.348;2023-08-24T14:28:23;1.17;;;1.17;;
4686;SDS011;2357;47.316;-1.348;2023-08-24T14:30:49;3.90;;;1.13;;
4686;SDS011;2357;47.316;-1.348;2023-08-24T14:33:15;4.93;;;1.00;;
4686;SDS011;2357;47.316;-1.348;2023-08-24T14:35:41;2.60;;;1.50;;
4686;SDS011;2357;47.316;-1.348;2023-08-24T14:38:14;2.20;;;1.20;;
4686;SDS011;2357;47.316;-1.348;2023-08-24T14:40:39;1.57;;;1.47;;
4686;SDS011;2357;47.316;-1.348;2023-08-24T14:43:05;1.13;;;1.13;;
4686;SDS011;2357;47.316;-1.348;2023-08-24T14:45:31;1.20;;;1.10;;
4686;SDS011;2357;47.316;-1.348;2023-08-24T14:47:56;6.87;;;1.20;;
4686;SDS011;2357;47.316;-1.348;2023-08-24T14:50:22;2.80;;;1.40;;
4686;SDS011;2357;47.316;-1.348;2023-08-24T14:52:47;2.97;;;1.20;;
4686;SDS011;2357;47.316;-1.348;2023-08-24T14:55:13;1.20;;;0.93;;
4686;SDS011;2357;47.316;-1.348;2023-08-24T14:57:39;5.13;;;1.13;;
4686;SDS011;2357;47.316;-1.348;2023-08-24T15:00:04;2.83;;;0.90;;
4686;SDS011;2357;47.316;-1.348;2023-08-24T15:02:31;3.57;;;1.43;;
4686;SDS011;2357;47.316;-1.348;2023-08-24T15:04:57;2.10;;;1.10;;
4686;SDS011;2357;47.316;-1.348;2023-08-24T15:07:23;6.13;;;1.20;;
4686;SDS011;2357;47.316;-1.348;2023-08-24T15:09:48;0.80;;;0.80;;
4686;SDS011;2357;47.316;-1.348;2023-08-24T15:12:15;7.20;;;0.87;;